sensor_id;sensor_type;location;lat;lon;timestamp;pressure;altitude;pressure_sealevel;temperature;humidity
76201;BME280;64981;52.930;9.266;2023-06-24T00:00:28;102120.47;;;16.32;73.10
76201;BME280;64981;52.930;9.266;2023-06-24T00:02:53;102116.78;;;16.08;74.04
76201;BME280;64981;52.930;9.266;2023-06-24T00:05:19;102113.91;;;15.94;74.54
76201;BME280;64981;52.930;9.266;2023-06-24T00:07:45;102118.91;;;15.97;74.44
76201;BME280;64981;52.930;9.266;2023-06-24T00:10:13;102111.75;;;15.97;74.62
76201;BME280;64981;52.930;9.266;2023-06-24T00:12:39;102111.91;;;15.88;74.80
76201;BME280;64981;52.930;9.266;2023-06-24T00:15:07;102110.53;;;15.92;74.78
76201;BME280;64981;52.930;9.266;2023-06-24T00:17:35;102121.06;;;15.85;75.00
76201;BME280;64981;52.930;9.266;2023-06-24T00:20:01;102118.84;;;15.73;75.01
76201;BME280;64981;52.930;9.266;2023-06-24T00:22:29;102120.50;;;15.74;75.11
76201;BME280;64981;52.930;9.266;2023-06-24T00:24:55;102118.16;;;15.62;75.29
76201;BME280;64981;52.930;9.266;2023-06-24T00:27:22;102119.47;;;15.67;75.14
76201;BME280;64981;52.930;9.266;2023-06-24T00:29:47;102128.59;;;15.56;75.39
76201;BME280;64981;52.930;9.266;2023-06-24T00:32:13;102122.13;;;15.67;74.98
76201;BME280;64981;52.930;9.266;2023-06-24T00:34:38;102129.63;;;15.63;75.54
76201;BME280;64981;52.930;9.266;2023-06-24T00:37:09;102136.47;;;15.74;75.01
76201;BME280;64981;52.930;9.266;2023-06-24T00:39:34;102128.81;;;15.71;74.76
76201;BME280;64981;52.930;9.266;2023-06-24T00:42:00;102119.31;;;15.68;75.02
76201;BME280;64981;52.930;9.266;2023-06-24T00:44:27;102129.97;;;15.68;74.42
76201;BME280;64981;52.930;9.266;2023-06-24T00:46:53;102115.25;;;15.48;75.26
76201;BME280;64981;52.930;9.266;2023-06-24T00:49:19;102116.78;;;15.50;75.41
76201;BME280;64981;52.930;9.266;2023-06-24T00:51:45;102126.06;;;15.46;75.47
76201;BME280;64981;52.930;9.266;2023-06-24T00:54:17;102112.38;;;15.33;76.21
76201;BME280;64981;52.930;9.266;2023-06-24T00:56:43;102112.69;;;15.30;75.89
76201;BME280;64981;52.930;9.266;2023-06-24T00:59:13;102111.31;;;15.26;75.96
76201;BME280;64981;52.930;9.266;2023-06-24T01:01:40;102116.00;;;15.24;75.78
76201;BME280;64981;52.930;9.266;2023-06-24T01:04:07;102114.63;;;15.20;76.10
76201;BME280;64981;52.930;9.266;2023-06-24T01:06:35;102112.59;;;15.14;76.28
76201;BME280;64981;52.930;9.266;2023-06-24T01:09:01;102122.25;;;15.15;76.07
76201;BME280;64981;52.930;9.266;2023-06-24T01:11:29;102129.91;;;15.10;76.33
76201;BME280;64981;52.930;9.266;2023-06-24T01:13:55;102129.53;;;15.05;76.60
76201;BME280;64981;52.930;9.266;2023-06-24T01:16:37;102125.88;;;15.06;76.36
76201;BME280;64981;52.930;9.266;2023-06-24T01:34:25;102119.84;;;14.78;76.87
76201;BME280;64981;52.930;9.266;2023-06-24T01:37:08;102120.38;;;14.82;76.94
76201;BME280;64981;52.930;9.266;2023-06-24T01:39:48;102126.81;;;14.79;77.01
76201;BME280;64981;52.930;9.266;2023-06-24T01:42:17;102112.50;;;14.72;77.09
76201;BME280;64981;52.930;9.266;2023-06-24T01:44:48;102121.81;;;14.76;77.06
76201;BME280;64981;52.930;9.266;2023-06-24T01:47:19;102124.78;;;14.73;76.92
76201;BME280;64981;52.930;9.266;2023-06-24T01:49:49;102121.81;;;14.76;76.71
76201;BME280;64981;52.930;9.266;2023-06-24T01:52:21;102122.13;;;14.73;76.90
76201;BME280;64981;52.930;9.266;2023-06-24T01:54:50;102129.34;;;14.81;76.71
76201;BME280;64981;52.930;9.266;2023-06-24T01:57:18;102125.16;;;14.78;76.49
76201;BME280;64981;52.930;9.266;2023-06-24T01:59:45;102138.47;;;14.78;76.45
76201;BME280;64981;52.930;9.266;2023-06-24T02:02:14;102132.09;;;14.71;76.43
76201;BME280;64981;52.930;9.266;2023-06-24T02:04:40;102136.88;;;14.68;76.72
76201;BME280;64981;52.930;9.266;2023-06-24T02:07:08;102133.06;;;14.70;76.39
76201;BME280;64981;52.930;9.266;2023-06-24T02:09:35;102128.03;;;14.59;76.49
76201;BME280;64981;52.930;9.266;2023-06-24T02:12:03;102138.47;;;14.61;76.62
76201;BME280;64981;52.930;9.266;2023-06-24T02:14:30;102133.94;;;14.53;76.71
76201;BME280;64981;52.930;9.266;2023-06-24T02:16:59;102127.63;;;14.54;76.67
76201;BME280;64981;52.930;9.266;2023-06-24T02:19:29;102137.44;;;14.53;76.80
76201;BME280;64981;52.930;9.266;2023-06-24T02:21:58;102141.94;;;14.53;76.83
76201;BME280;64981;52.930;9.266;2023-06-24T02:24:27;102131.13;;;14.54;76.45
76201;BME280;64981;52.930;9.266;2023-06-24T02:26:56;102138.75;;;14.49;76.76
76201;BME280;64981;52.930;9.266;2023-06-24T02:29:26;102135.59;;;14.54;76.82
76201;BME280;64981;52.930;9.266;2023-06-24T02:31:53;102136.13;;;14.57;76.58
76201;BME280;64981;52.930;9.266;2023-06-24T02:34:19;102143.22;;;14.49;76.84
76201;BME280;64981;52.930;9.266;2023-06-24T02:36:45;102135.00;;;14.42;77.21
76201;BME280;64981;52.930;9.266;2023-06-24T02:39:11;102136.69;;;14.43;77.27
76201;BME280;64981;52.930;9.266;2023-06-24T02:41:36;102139.50;;;14.42;77.14
76201;BME280;64981;52.930;9.266;2023-06-24T02:44:02;102140.66;;;14.22;77.04
76201;BME280;64981;52.930;9.266;2023-06-24T02:46:29;102150.28;;;14.40;76.72
76201;BME280;64981;52.930;9.266;2023-06-24T02:48:57;102143.25;;;14.31;76.72
76201;BME280;64981;52.930;9.266;2023-06-24T02:51:25;102144.34;;;14.29;77.14
76201;BME280;64981;52.930;9.266;2023-06-24T02:53:51;102144.59;;;14.35;76.66
76201;BME280;64981;52.930;9.266;2023-06-24T02:56:17;102138.47;;;14.35;76.54
76201;BME280;64981;52.930;9.266;2023-06-24T02:58:47;102144.59;;;14.35;76.54
76201;BME280;64981;52.930;9.266;2023-06-24T03:01:15;102135.81;;;14.35;76.42
76201;BME280;64981;52.930;9.266;2023-06-24T03:03:42;102133.72;;;14.29;76.58
76201;BME280;64981;52.930;9.266;2023-06-24T03:06:08;102140.34;;;14.42;75.80
76201;BME280;64981;52.930;9.266;2023-06-24T03:08:39;102143.25;;;14.31;76.11
76201;BME280;64981;52.930;9.266;2023-06-24T03:11:04;102150.69;;;14.28;76.75
76201;BME280;64981;52.930;9.266;2023-06-24T03:13:30;102141.03;;;14.09;77.14
76201;BME280;64981;52.930;9.266;2023-06-24T03:15:55;102146.41;;;14.17;76.82
76201;BME280;64981;52.930;9.266;2023-06-24T03:18:21;102143.75;;;14.17;77.10
76201;BME280;64981;52.930;9.266;2023-06-24T03:20:46;102154.97;;;14.29;76.47
76201;BME280;64981;52.930;9.266;2023-06-24T03:23:12;102142.53;;;14.29;75.91
76201;BME280;64981;52.930;9.266;2023-06-24T03:25:38;102148.16;;;14.26;75.82
76201;BME280;64981;52.930;9.266;2023-06-24T03:28:03;102148.41;;;14.15;76.06
76201;BME280;64981;52.930;9.266;2023-06-24T03:30:32;102143.44;;;14.20;75.69
76201;BME280;64981;52.930;9.266;2023-06-24T03:32:58;102159.63;;;14.27;75.44
76201;BME280;64981;52.930;9.266;2023-06-24T03:35:24;102162.69;;;14.32;75.23
76201;BME280;64981;52.930;9.266;2023-06-24T03:37:49;102161.22;;;14.20;75.82
76201;BME280;64981;52.930;9.266;2023-06-24T03:40:15;102172.16;;;14.17;76.13
76201;BME280;64981;52.930;9.266;2023-06-24T03:42:41;102173.81;;;14.18;76.21
76201;BME280;64981;52.930;9.266;2023-06-24T03:45:07;102175.81;;;14.16;75.97
76201;BME280;64981;52.930;9.266;2023-06-24T03:47:32;102170.88;;;14.21;76.38
76201;BME280;64981;52.930;9.266;2023-06-24T03:49:58;102174.00;;;14.34;75.63
76201;BME280;64981;52.930;9.266;2023-06-24T03:52:24;102172.06;;;14.26;75.64
76201;BME280;64981;52.930;9.266;2023-06-24T03:54:49;102167.75;;;14.25;75.83
76201;BME280;64981;52.930;9.266;2023-06-24T03:57:15;102176.66;;;14.34;76.15
76201;BME280;64981;52.930;9.266;2023-06-24T03:59:40;102175.19;;;14.39;75.59
76201;BME280;64981;52.930;9.266;2023-06-24T04:02:06;102174.81;;;14.52;75.36
76201;BME280;64981;52.930;9.266;2023-06-24T04:04:35;102173.31;;;14.49;75.59
76201;BME280;64981;52.930;9.266;2023-06-24T04:07:02;102162.66;;;14.49;75.57
76201;BME280;64981;52.930;9.266;2023-06-24T04:09:29;102177.53;;;14.60;75.48
76201;BME280;64981;52.930;9.266;2023-06-24T04:11:54;102169.72;;;14.58;75.49
76201;BME280;64981;52.930;9.266;2023-06-24T04:14:20;102166.97;;;14.68;75.48
76201;BME280;64981;52.930;9.266;2023-06-24T04:16:45;102180.63;;;14.73;75.44
76201;BME280;64981;52.930;9.266;2023-06-24T04:19:11;102184.06;;;14.83;75.55
76201;BME280;64981;52.930;9.266;2023-06-24T04:21:37;102182.28;;;14.92;75.07
76201;BME280;64981;52.930;9.266;2023-06-24T04:24:03;102189.28;;;14.93;75.36
76201;BME280;64981;52.930;9.266;2023-06-24T04:26:29;102195.44;;;14.93;75.66
76201;BME280;64981;52.930;9.266;2023-06-24T04:28:54;102189.28;;;14.93;75.70
76201;BME280;64981;52.930;9.266;2023-06-24T04:31:20;102186.66;;;15.01;75.39
76201;BME280;64981;52.930;9.266;2023-06-24T04:33:45;102185.63;;;15.12;75.26
76201;BME280;64981;52.930;9.266;2023-06-24T04:36:11;102193.06;;;15.08;76.45
76201;BME280;64981;52.930;9.266;2023-06-24T04:38:36;102185.16;;;15.16;76.77
76201;BME280;64981;52.930;9.266;2023-06-24T04:41:02;102185.19;;;15.24;76.22
76201;BME280;64981;52.930;9.266;2023-06-24T04:43:29;102192.88;;;15.27;75.71
76201;BME280;64981;52.930;9.266;2023-06-24T04:45:54;102189.78;;;15.40;74.93
76201;BME280;64981;52.930;9.266;2023-06-24T04:48:23;102198.94;;;15.45;75.27
76201;BME280;64981;52.930;9.266;2023-06-24T04:50:49;102196.34;;;15.53;75.25
76201;BME280;64981;52.930;9.266;2023-06-24T04:53:15;102197.84;;;15.56;75.17
76201;BME280;64981;52.930;9.266;2023-06-24T04:55:40;102199.25;;;15.68;74.86
76201;BME280;64981;52.930;9.266;2023-06-24T04:58:06;102206.28;;;15.77;74.91
76201;BME280;64981;52.930;9.266;2023-06-24T05:00:31;102210.50;;;15.96;75.10
76201;BME280;64981;52.930;9.266;2023-06-24T05:02:57;102214.97;;;16.29;74.30
76201;BME280;64981;52.930;9.266;2023-06-24T05:05:23;102213.16;;;16.62;73.12
76201;BME280;64981;52.930;9.266;2023-06-24T05:07:49;102203.00;;;17.06;71.34
76201;BME280;64981;52.930;9.266;2023-06-24T05:10:14;102207.94;;;17.96;68.34
76201;BME280;64981;52.930;9.266;2023-06-24T05:12:40;102203.81;;;19.07;64.89
76201;BME280;64981;52.930;9.266;2023-06-24T05:15:06;102199.44;;;20.45;60.94
76201;BME280;64981;52.930;9.266;2023-06-24T05:17:32;102198.34;;;21.78;56.87
76201;BME280;64981;52.930;9.266;2023-06-24T05:19:58;102186.19;;;22.75;53.94
76201;BME280;64981;52.930;9.266;2023-06-24T05:22:24;102190.94;;;23.90;50.98
76201;BME280;64981;52.930;9.266;2023-06-24T05:24:49;102190.94;;;24.66;49.41
76201;BME280;64981;52.930;9.266;2023-06-24T05:27:15;102184.94;;;25.49;47.43
76201;BME280;64981;52.930;9.266;2023-06-24T05:29:40;102182.59;;;26.72;44.59
76201;BME280;64981;52.930;9.266;2023-06-24T05:32:06;102182.22;;;27.38;43.03
76201;BME280;64981;52.930;9.266;2023-06-24T05:34:32;102176.94;;;27.43;43.10
76201;BME280;64981;52.930;9.266;2023-06-24T05:36:59;102167.97;;;26.73;44.75
76201;BME280;64981;52.930;9.266;2023-06-24T05:39:24;102171.44;;;25.79;46.54
76201;BME280;64981;52.930;9.266;2023-06-24T05:41:50;102170.13;;;25.34;47.77
76201;BME280;64981;52.930;9.266;2023-06-24T05:44:16;102182.16;;;24.70;49.06
76201;BME280;64981;52.930;9.266;2023-06-24T05:46:44;102185.91;;;23.29;52.90
76201;BME280;64981;52.930;9.266;2023-06-24T05:49:10;102182.75;;;22.08;56.01
76201;BME280;64981;52.930;9.266;2023-06-24T05:51:35;102171.16;;;22.07;56.75
76201;BME280;64981;52.930;9.266;2023-06-24T05:54:01;102177.03;;;21.76;57.38
76201;BME280;64981;52.930;9.266;2023-06-24T05:56:27;102173.13;;;21.10;59.10
76201;BME280;64981;52.930;9.266;2023-06-24T05:58:52;102177.84;;;21.02;59.64
76201;BME280;64981;52.930;9.266;2023-06-24T06:01:18;102179.09;;;20.57;61.52
76201;BME280;64981;52.930;9.266;2023-06-24T06:03:44;102175.31;;;20.72;60.92
76201;BME280;64981;52.930;9.266;2023-06-24T06:06:09;102168.59;;;20.55;61.48
76201;BME280;64981;52.930;9.266;2023-06-24T06:08:35;102180.16;;;20.20;62.92
76201;BME280;64981;52.930;9.266;2023-06-24T06:11:01;102175.97;;;19.96;63.94
76201;BME280;64981;52.930;9.266;2023-06-24T06:13:28;102167.91;;;19.96;63.97
76201;BME280;64981;52.930;9.266;2023-06-24T06:15:55;102178.50;;;20.19;63.14
76201;BME280;64981;52.930;9.266;2023-06-24T06:18:20;102172.16;;;20.05;63.76
76201;BME280;64981;52.930;9.266;2023-06-24T06:20:46;102166.38;;;20.65;62.21
76201;BME280;64981;52.930;9.266;2023-06-24T06:23:11;102178.50;;;21.10;60.59
76201;BME280;64981;52.930;9.266;2023-06-24T06:25:37;102177.84;;;21.02;60.54
76201;BME280;64981;52.930;9.266;2023-06-24T06:28:04;102175.22;;;20.87;61.16
76201;BME280;64981;52.930;9.266;2023-06-24T06:30:30;102181.13;;;21.04;61.08
76201;BME280;64981;52.930;9.266;2023-06-24T06:32:55;102186.97;;;21.07;61.28
76201;BME280;64981;52.930;9.266;2023-06-24T06:35:21;102188.66;;;20.87;61.42
76201;BME280;64981;52.930;9.266;2023-06-24T06:37:46;102194.97;;;20.37;62.82
76201;BME280;64981;52.930;9.266;2023-06-24T06:40:18;102199.97;;;20.19;63.45
76201;BME280;64981;52.930;9.266;2023-06-24T06:42:44;102204.06;;;20.36;62.81
76201;BME280;64981;52.930;9.266;2023-06-24T06:45:10;102218.13;;;20.38;61.93
76201;BME280;64981;52.930;9.266;2023-06-24T06:47:35;102209.97;;;20.46;61.23
76201;BME280;64981;52.930;9.266;2023-06-24T06:50:01;102205.41;;;20.61;61.81
76201;BME280;64981;52.930;9.266;2023-06-24T06:52:26;102211.88;;;20.95;60.84
76201;BME280;64981;52.930;9.266;2023-06-24T06:54:54;102198.94;;;21.05;58.18
76201;BME280;64981;52.930;9.266;2023-06-24T06:57:19;102200.78;;;21.04;58.49
76201;BME280;64981;52.930;9.266;2023-06-24T06:59:45;102206.84;;;21.13;58.33
76201;BME280;64981;52.930;9.266;2023-06-24T07:02:11;102211.28;;;21.20;58.85
76201;BME280;64981;52.930;9.266;2023-06-24T07:04:36;102207.84;;;21.12;58.83
76201;BME280;64981;52.930;9.266;2023-06-24T07:07:02;102215.22;;;20.75;59.90
76201;BME280;64981;52.930;9.266;2023-06-24T07:09:28;102205.47;;;20.74;59.79
76201;BME280;64981;52.930;9.266;2023-06-24T07:11:53;102217.78;;;20.62;60.39
76201;BME280;64981;52.930;9.266;2023-06-24T07:14:19;102212.28;;;20.70;61.00
76201;BME280;64981;52.930;9.266;2023-06-24T07:16:44;102211.38;;;20.84;60.89
76201;BME280;64981;52.930;9.266;2023-06-24T07:19:10;102218.31;;;21.00;60.09
76201;BME280;64981;52.930;9.266;2023-06-24T07:21:37;102213.81;;;20.79;59.83
76201;BME280;64981;52.930;9.266;2023-06-24T07:24:02;102213.75;;;20.73;60.00
76201;BME280;64981;52.930;9.266;2023-06-24T07:26:28;102211.25;;;20.71;60.04
76201;BME280;64981;52.930;9.266;2023-06-24T07:28:57;102212.88;;;20.93;59.19
76201;BME280;64981;52.930;9.266;2023-06-24T07:31:24;102217.00;;;20.89;60.27
76201;BME280;64981;52.930;9.266;2023-06-24T07:33:49;102210.06;;;20.74;60.02
76201;BME280;64981;52.930;9.266;2023-06-24T07:36:15;102218.97;;;20.81;58.63
76201;BME280;64981;52.930;9.266;2023-06-24T07:38:40;102222.69;;;20.80;59.98
76201;BME280;64981;52.930;9.266;2023-06-24T07:41:06;102225.09;;;20.96;58.82
76201;BME280;64981;52.930;9.266;2023-06-24T07:43:32;102215.97;;;20.90;58.01
76201;BME280;64981;52.930;9.266;2023-06-24T07:45:57;102228.81;;;21.16;58.27
76201;BME280;64981;52.930;9.266;2023-06-24T07:48:23;102228.63;;;21.18;57.38
76201;BME280;64981;52.930;9.266;2023-06-24T07:50:48;102225.00;;;21.11;57.80
76201;BME280;64981;52.930;9.266;2023-06-24T07:53:14;102227.69;;;21.11;56.97
76201;BME280;64981;52.930;9.266;2023-06-24T07:55:40;102228.28;;;21.34;56.45
76201;BME280;64981;52.930;9.266;2023-06-24T07:58:06;102220.13;;;21.49;56.38
76201;BME280;64981;52.930;9.266;2023-06-24T08:00:32;102225.66;;;21.40;55.99
76201;BME280;64981;52.930;9.266;2023-06-24T08:02:58;102220.88;;;21.70;54.46
76201;BME280;64981;52.930;9.266;2023-06-24T08:05:24;102225.22;;;21.37;56.50
76201;BME280;64981;52.930;9.266;2023-06-24T08:07:51;102222.88;;;21.55;57.13
76201;BME280;64981;52.930;9.266;2023-06-24T08:10:17;102225.88;;;21.80;56.53
76201;BME280;64981;52.930;9.266;2023-06-24T08:12:42;102212.38;;;22.08;55.71
76201;BME280;64981;52.930;9.266;2023-06-24T08:15:08;102209.03;;;22.06;55.71
76201;BME280;64981;52.930;9.266;2023-06-24T08:17:34;102213.88;;;21.82;55.80
76201;BME280;64981;52.930;9.266;2023-06-24T08:20:01;102201.94;;;21.91;56.22
76201;BME280;64981;52.930;9.266;2023-06-24T08:22:26;102201.59;;;22.08;55.08
76201;BME280;64981;52.930;9.266;2023-06-24T08:24:52;102200.03;;;21.85;56.07
76201;BME280;64981;52.930;9.266;2023-06-24T08:27:17;102192.81;;;21.86;55.81
76201;BME280;64981;52.930;9.266;2023-06-24T08:29:43;102181.91;;;22.01;55.80
76201;BME280;64981;52.930;9.266;2023-06-24T08:32:08;102203.84;;;22.04;55.70
76201;BME280;64981;52.930;9.266;2023-06-24T08:34:34;102212.94;;;21.96;56.92
76201;BME280;64981;52.930;9.266;2023-06-24T08:37:00;102204.25;;;22.01;55.76
76201;BME280;64981;52.930;9.266;2023-06-24T08:39:25;102206.88;;;21.88;56.43
76201;BME280;64981;52.930;9.266;2023-06-24T08:41:51;102204.66;;;21.98;55.91
76201;BME280;64981;52.930;9.266;2023-06-24T08:44:17;102193.28;;;21.96;56.66
76201;BME280;64981;52.930;9.266;2023-06-24T08:46:43;102196.88;;;22.23;55.64
76201;BME280;64981;52.930;9.266;2023-06-24T08:49:28;102203.13;;;22.36;55.67
76201;BME280;64981;52.930;9.266;2023-06-24T08:52:06;102200.25;;;22.58;54.81
76201;BME280;64981;52.930;9.266;2023-06-24T08:54:35;102193.03;;;22.71;54.37
76201;BME280;64981;52.930;9.266;2023-06-24T08:57:02;102184.53;;;22.87;53.67
76201;BME280;64981;52.930;9.266;2023-06-24T08:59:31;102200.28;;;22.90;53.47
76201;BME280;64981;52.930;9.266;2023-06-24T09:01:57;102188.22;;;23.06;52.69
76201;BME280;64981;52.930;9.266;2023-06-24T09:04:22;102186.78;;;23.10;52.12
76201;BME280;64981;52.930;9.266;2023-06-24T09:06:48;102192.59;;;22.94;53.38
76201;BME280;64981;52.930;9.266;2023-06-24T09:09:18;102185.09;;;23.16;52.85
76201;BME280;64981;52.930;9.266;2023-06-24T09:11:51;102185.09;;;23.29;51.94
76201;BME280;64981;52.930;9.266;2023-06-24T09:14:17;102185.72;;;23.37;52.03
76201;BME280;64981;52.930;9.266;2023-06-24T09:16:51;102183.22;;;23.23;51.62
76201;BME280;64981;52.930;9.266;2023-06-24T09:19:23;102171.41;;;23.30;52.51
76201;BME280;64981;52.930;9.266;2023-06-24T09:21:50;102178.00;;;23.47;51.88
76201;BME280;64981;52.930;9.266;2023-06-24T09:24:18;102183.59;;;23.59;50.91
76201;BME280;64981;52.930;9.266;2023-06-24T09:26:44;102189.28;;;23.82;48.60
76201;BME280;64981;52.930;9.266;2023-06-24T09:29:12;102176.41;;;23.84;48.30
76201;BME280;64981;52.930;9.266;2023-06-24T09:31:47;102171.91;;;23.72;48.76
76201;BME280;64981;52.930;9.266;2023-06-24T09:34:13;102171.09;;;23.71;48.54
76201;BME280;64981;52.930;9.266;2023-06-24T09:36:44;102170.69;;;23.68;49.03
76201;BME280;64981;52.930;9.266;2023-06-24T09:39:10;102165.47;;;23.73;49.36
76201;BME280;64981;52.930;9.266;2023-06-24T09:41:40;102180.41;;;23.75;50.25
76201;BME280;64981;52.930;9.266;2023-06-24T09:44:10;102169.88;;;24.12;48.61
76201;BME280;64981;52.930;9.266;2023-06-24T09:46:36;102160.06;;;24.17;48.87
76201;BME280;64981;52.930;9.266;2023-06-24T09:49:04;102172.13;;;24.15;49.12
76201;BME280;64981;52.930;9.266;2023-06-24T09:51:33;102169.91;;;23.98;48.07
76201;BME280;64981;52.930;9.266;2023-06-24T09:54:05;102164.03;;;24.15;47.06
76201;BME280;64981;52.930;9.266;2023-06-24T09:56:33;102173.34;;;24.19;47.73
76201;BME280;64981;52.930;9.266;2023-06-24T09:59:01;102172.69;;;24.23;48.12
76201;BME280;64981;52.930;9.266;2023-06-24T10:01:30;102156.22;;;24.31;46.95
76201;BME280;64981;52.930;9.266;2023-06-24T10:03:58;102157.47;;;24.60;46.53
76201;BME280;64981;52.930;9.266;2023-06-24T10:06:26;102151.50;;;24.51;47.36
76201;BME280;64981;52.930;9.266;2023-06-24T10:08:52;102145.63;;;24.61;47.12
76201;BME280;64981;52.930;9.266;2023-06-24T10:11:18;102138.53;;;24.60;47.33
76201;BME280;64981;52.930;9.266;2023-06-24T10:13:43;102143.81;;;24.80;46.73
76201;BME280;64981;52.930;9.266;2023-06-24T10:16:09;102144.84;;;24.79;46.16
76201;BME280;64981;52.930;9.266;2023-06-24T10:18:37;102141.31;;;24.78;46.24
76201;BME280;64981;52.930;9.266;2023-06-24T10:21:05;102133.06;;;24.73;46.43
76201;BME280;64981;52.930;9.266;2023-06-24T10:23:39;102138.91;;;24.70;45.99
76201;BME280;64981;52.930;9.266;2023-06-24T10:26:21;102124.19;;;24.66;46.89
76201;BME280;64981;52.930;9.266;2023-06-24T10:29:15;102126.72;;;24.86;46.63
76201;BME280;64981;52.930;9.266;2023-06-24T10:31:51;102117.69;;;24.92;47.14
76201;BME280;64981;52.930;9.266;2023-06-24T10:34:29;102132.38;;;25.02;46.42
76201;BME280;64981;52.930;9.266;2023-06-24T10:36:59;102121.63;;;24.96;46.15
76201;BME280;64981;52.930;9.266;2023-06-24T10:39:38;102126.31;;;24.82;45.43
76201;BME280;64981;52.930;9.266;2023-06-24T10:45:18;102118.22;;;25.00;45.07
76201;BME280;64981;52.930;9.266;2023-06-24T10:47:47;102113.66;;;25.19;45.51
76201;BME280;64981;52.930;9.266;2023-06-24T10:50:16;102115.00;;;25.10;44.91
76201;BME280;64981;52.930;9.266;2023-06-24T10:52:44;102109.38;;;24.93;45.62
76201;BME280;64981;52.930;9.266;2023-06-24T10:55:11;102103.53;;;24.96;46.21
76201;BME280;64981;52.930;9.266;2023-06-24T10:57:38;102111.06;;;25.13;45.46
76201;BME280;64981;52.930;9.266;2023-06-24T11:00:05;102102.75;;;25.07;45.91
76201;BME280;64981;52.930;9.266;2023-06-24T11:02:31;102101.88;;;25.13;44.61
76201;BME280;64981;52.930;9.266;2023-06-24T11:05:02;102097.59;;;25.42;44.02
76201;BME280;64981;52.930;9.266;2023-06-24T11:07:31;102093.09;;;25.36;43.17
76201;BME280;64981;52.930;9.266;2023-06-24T11:12:42;102091.81;;;25.21;46.08
76201;BME280;64981;52.930;9.266;2023-06-24T11:15:11;102084.22;;;25.11;45.59
76201;BME280;64981;52.930;9.266;2023-06-24T11:17:38;102094.59;;;25.32;45.97
76201;BME280;64981;52.930;9.266;2023-06-24T11:20:10;102094.53;;;25.39;45.85
76201;BME280;64981;52.930;9.266;2023-06-24T11:22:36;102095.47;;;25.26;45.92
76201;BME280;64981;52.930;9.266;2023-06-24T11:25:02;102082.75;;;25.33;45.02
76201;BME280;64981;52.930;9.266;2023-06-24T11:27:29;102092.63;;;25.21;46.56
76201;BME280;64981;52.930;9.266;2023-06-24T11:29:58;102087.91;;;25.53;44.77
76201;BME280;64981;52.930;9.266;2023-06-24T11:32:35;102094.72;;;25.19;45.90
76201;BME280;64981;52.930;9.266;2023-06-24T11:35:00;102090.25;;;25.31;45.61
76201;BME280;64981;52.930;9.266;2023-06-24T11:37:31;102094.28;;;25.22;45.81
76201;BME280;64981;52.930;9.266;2023-06-24T11:40:04;102097.13;;;25.27;45.35
76201;BME280;64981;52.930;9.266;2023-06-24T11:42:47;102094.13;;;24.99;46.32
76201;BME280;64981;52.930;9.266;2023-06-24T11:45:13;102090.00;;;25.15;45.13
76201;BME280;64981;52.930;9.266;2023-06-24T11:47:40;102081.72;;;24.91;45.79
76201;BME280;64981;52.930;9.266;2023-06-24T11:50:07;102084.81;;;25.13;45.65
76201;BME280;64981;52.930;9.266;2023-06-24T11:52:39;102077.91;;;25.17;45.93
76201;BME280;64981;52.930;9.266;2023-06-24T11:55:18;102078.75;;;25.18;46.36
76201;BME280;64981;52.930;9.266;2023-06-24T11:58:00;102081.44;;;25.36;45.47
76201;BME280;64981;52.930;9.266;2023-06-24T12:00:33;102077.47;;;25.38;45.46
76201;BME280;64981;52.930;9.266;2023-06-24T12:03:02;102074.28;;;25.41;45.60
76201;BME280;64981;52.930;9.266;2023-06-24T12:05:31;102076.09;;;25.47;45.66
76201;BME280;64981;52.930;9.266;2023-06-24T12:08:04;102068.22;;;25.46;45.50
76201;BME280;64981;52.930;9.266;2023-06-24T12:10:31;102068.97;;;25.35;44.31
76201;BME280;64981;52.930;9.266;2023-06-24T12:12:59;102062.81;;;25.28;44.53
76201;BME280;64981;52.930;9.266;2023-06-24T12:15:26;102057.94;;;25.36;44.76
76201;BME280;64981;52.930;9.266;2023-06-24T12:17:52;102061.44;;;25.55;44.74
76201;BME280;64981;52.930;9.266;2023-06-24T12:20:17;102060.13;;;25.57;44.69
76201;BME280;64981;52.930;9.266;2023-06-24T12:22:46;102060.25;;;25.33;44.99
76201;BME280;64981;52.930;9.266;2023-06-24T12:25:12;102061.84;;;25.40;44.53
76201;BME280;64981;52.930;9.266;2023-06-24T12:27:38;102053.31;;;25.55;45.48
76201;BME280;64981;52.930;9.266;2023-06-24T12:30:06;102057.75;;;25.79;45.75
76201;BME280;64981;52.930;9.266;2023-06-24T12:32:32;102055.66;;;25.81;45.30
76201;BME280;64981;52.930;9.266;2023-06-24T12:34:58;102054.19;;;25.79;44.68
76201;BME280;64981;52.930;9.266;2023-06-24T12:37:24;102052.84;;;25.88;44.36
76201;BME280;64981;52.930;9.266;2023-06-24T12:39:49;102041.75;;;25.89;45.13
76201;BME280;64981;52.930;9.266;2023-06-24T12:42:17;102044.66;;;26.06;44.76
76201;BME280;64981;52.930;9.266;2023-06-24T12:44:43;102044.63;;;25.94;44.85
76201;BME280;64981;52.930;9.266;2023-06-24T12:47:09;102051.69;;;25.95;44.59
76201;BME280;64981;52.930;9.266;2023-06-24T12:49:34;102044.09;;;26.15;44.38
76201;BME280;64981;52.930;9.266;2023-06-24T12:52:01;102043.16;;;25.80;44.95
76201;BME280;64981;52.930;9.266;2023-06-24T12:54:26;102040.19;;;26.11;43.99
76201;BME280;64981;52.930;9.266;2023-06-24T12:56:52;102045.25;;;26.08;43.94
76201;BME280;64981;52.930;9.266;2023-06-24T12:59:17;102043.88;;;25.87;44.06
76201;BME280;64981;52.930;9.266;2023-06-24T13:01:43;102040.28;;;26.05;44.21
76201;BME280;64981;52.930;9.266;2023-06-24T13:04:11;102035.47;;;26.07;43.80
76201;BME280;64981;52.930;9.266;2023-06-24T13:06:36;102041.97;;;26.29;43.04
76201;BME280;64981;52.930;9.266;2023-06-24T13:09:02;102041.75;;;26.42;43.61
76201;BME280;64981;52.930;9.266;2023-06-24T13:11:28;102048.22;;;26.41;43.19